Time;durP1;ratioP1;P1;durP2;ratioP2;P2;SDS_P1;SDS_P2;PMS_P1;PMS_P2;Temp;Humidity;BMP_temperature;BMP_pressure;BME280_temperature;BME280_humidity;BME280_pressure;Samples;Min_cycle;Max_cycle;Signal;HPM_P1;HPM_P2
2021/09/02 00:02:00;;;;;;;8.05;6.65;;;;;;;16.58;76.43;99379.02;1778146;80;22341;-73
2021/09/02 00:04:28;;;;;;;9.05;6.85;;;;;;;16.58;76.45;99375.02;1758100;80;20933;-73
2021/09/02 00:06:57;;;;;;;9.33;7.55;;;;;;;16.57;76.60;99381.88;1769401;80;20948;-72
2021/09/02 00:09:23;;;;;;;9.18;6.50;;;;;;;16.53;76.73;99380.61;1753886;80;21435;-73
2021/09/02 00:11:51;;;;;;;8.80;7.28;;;;;;;16.51;76.92;99378.13;1750141;82;20950;-73
2021/09/02 00:14:17;;;;;;;10.85;6.95;;;;;;;16.49;77.04;99377.97;1755853;80;22273;-73
2021/09/02 00:16:44;;;;;;;8.05;6.97;;;;;;;16.47;77.21;99377.33;1762669;80;21352;-73
2021/09/02 00:19:11;;;;;;;9.55;7.45;;;;;;;16.45;77.30;99374.86;1759470;80;20948;-73
2021/09/02 00:21:38;;;;;;;8.75;7.20;;;;;;;16.43;77.44;99377.39;1766890;80;20948;-73
2021/09/02 00:24:05;;;;;;;10.30;7.12;;;;;;;16.42;77.54;99377.07;1751047;80;21325;-72
2021/09/02 00:26:32;;;;;;;9.70;7.15;;;;;;;16.40;77.72;99372.41;1745433;80;21852;-73
2021/09/02 00:28:58;;;;;;;10.18;7.97;;;;;;;16.39;77.72;99374.24;1702961;83;21009;-73
2021/09/02 00:31:25;;;;;;;8.68;7.78;;;;;;;16.37;77.85;99377.61;1780663;79;21036;-73
2021/09/02 00:33:51;;;;;;;10.48;7.65;;;;;;;16.35;77.90;99376.97;1777199;80;20944;-72
2021/09/02 00:36:17;;;;;;;8.75;7.90;;;;;;;16.35;77.97;99386.80;1752562;80;21062;-73
2021/09/02 00:38:44;;;;;;;10.03;7.80;;;;;;;16.34;78.10;99388.64;1762716;80;21782;-73
2021/09/02 00:41:11;;;;;;;11.73;7.60;;;;;;;16.34;78.11;99388.64;1697588;83;20972;-73
2021/09/02 00:43:42;;;;;;;9.48;7.75;;;;;;;16.35;78.15;99386.80;1728963;82;20951;-72
2021/09/02 00:46:10;;;;;;;9.50;6.78;;;;;;;16.34;78.24;99385.15;1771717;80;20980;-72
2021/09/02 00:48:37;;;;;;;8.35;7.53;;;;;;;16.32;78.24;99382.67;1782960;80;21047;-72
2021/09/02 00:51:04;;;;;;;9.73;7.55;;;;;;;16.31;78.25;99379.19;1738547;81;21822;-73
2021/09/02 00:53:33;;;;;;;8.05;7.35;;;;;;;16.29;78.32;99385.17;1752728;80;20948;-73
2021/09/02 00:56:01;;;;;;;10.25;7.55;;;;;;;16.29;78.35;99389.17;1754822;80;21724;-73
2021/09/02 00:58:27;;;;;;;8.68;7.25;;;;;;;16.28;78.50;99388.03;1769240;80;21000;-72
2021/09/02 01:00:53;;;;;;;10.25;7.72;;;;;;;16.26;78.49;99386.88;1752811;80;20992;-73
2021/09/02 01:03:20;;;;;;;9.20;7.50;;;;;;;16.26;78.52;99382.06;1754943;80;22178;-72
2021/09/02 01:05:51;;;;;;;8.48;7.30;;;;;;;16.23;78.54;99391.25;1760209;80;20917;-72
2021/09/02 01:08:18;;;;;;;10.15;7.58;;;;;;;16.24;78.62;99396.08;1771242;80;21008;-73
2021/09/02 01:10:49;;;;;;;9.38;7.50;;;;;;;16.23;78.63;99400.58;1759816;80;21118;-73
2021/09/02 01:13:17;;;;;;;9.40;7.55;;;;;;;16.21;78.71;99394.61;1756771;80;20980;-74
2021/09/02 01:15:46;;;;;;;8.90;7.10;;;;;;;16.21;78.71;99395.94;1777184;80;21517;-73
2021/09/02 01:18:12;;;;;;;9.30;7.10;;;;;;;16.20;78.71;99391.59;1755163;80;21670;-73
2021/09/02 01:20:38;;;;;;;7.00;6.30;;;;;;;16.20;78.78;99398.26;1775135;80;20973;-72
2021/09/02 01:23:05;;;;;;;7.60;6.37;;;;;;;16.20;78.80;99392.10;1782487;80;21048;-72
2021/09/02 01:25:41;;;;;;;9.90;7.08;;;;;;;16.19;78.81;99397.11;1779399;79;20984;-72
2021/09/02 01:28:07;;;;;;;9.38;6.12;;;;;;;16.17;78.76;99395.97;1783266;80;21803;-74
2021/09/02 01:30:34;;;;;;;7.55;6.42;;;;;;;16.16;78.67;99399.64;1772253;79;20918;-73
2021/09/02 01:33:01;;;;;;;7.47;5.70;;;;;;;16.17;78.58;99405.80;1781978;80;20988;-72
2021/09/02 01:35:31;;;;;;;9.23;5.75;;;;;;;16.17;78.55;99400.47;1777197;80;20953;-73
2021/09/02 01:37:57;;;;;;;6.62;4.90;;;;;;;16.18;78.47;99408.27;1772369;80;20987;-72
2021/09/02 01:40:34;;;;;;;6.28;5.33;;;;;;;16.19;78.36;99409.10;1782404;80;21455;-73
2021/09/02 01:43:01;;;;;;;6.72;5.05;;;;;;;16.18;78.22;99416.27;1778044;80;20924;-73
2021/09/02 01:45:27;;;;;;;4.80;4.30;;;;;;;16.15;78.06;99408.64;1779665;80;21399;-73
2021/09/02 01:48:01;;;;;;;7.03;4.33;;;;;;;16.14;78.07;99414.16;1738108;80;20996;-72
2021/09/02 01:50:28;;;;;;;5.42;3.83;;;;;;;;;;1708039;83;20965;-73
2021/09/02 01:52:57;;;;;;;6.08;3.95;;;;;;;16.13;77.93;99409.34;1775040;79;21719;-73
2021/09/02 01:55:25;;;;;;;5.75;3.90;;;;;;;16.11;77.72;99411.33;1741780;80;20957;-72
2021/09/02 01:57:52;;;;;;;4.62;3.58;;;;;;;16.06;77.53;99415.56;1733595;81;20959;-72
2021/09/02 02:00:19;;;;;;;4.55;3.40;;;;;;;16.03;77.40;99410.92;1764096;80;20953;-72
2021/09/02 02:02:45;;;;;;;6.28;3.30;;;;;;;16.02;77.39;99417.27;1761434;80;21000;-73
2021/09/02 02:05:12;;;;;;;4.67;3.10;;;;;;;16.03;77.38;99413.59;1767132;80;22168;-75
2021/09/02 02:07:38;;;;;;;6.40;3.52;;;;;;;16.04;77.35;99405.09;1769278;80;21035;-73
2021/09/02 02:10:08;;;;;;;5.47;3.00;;;;;;;16.00;77.35;99404.61;1743967;80;21070;-73
2021/09/02 02:12:35;;;;;;;3.83;2.90;;;;;;;15.99;77.47;99411.45;1745289;80;20996;-74
2021/09/02 02:15:01;;;;;;;4.08;3.02;;;;;;;15.94;77.47;99404.02;1742687;80;20945;-75
2021/09/02 02:17:28;;;;;;;6.40;2.98;;;;;;;15.87;77.57;99399.58;1752019;80;21788;-73
2021/09/02 02:19:56;;;;;;;8.08;3.17;;;;;;;15.84;77.68;99395.45;1773851;80;21491;-73
2021/09/02 02:22:22;;;;;;;3.83;3.30;;;;;;;15.84;77.79;99406.09;1754709;80;20980;-73
2021/09/02 02:24:48;;;;;;;4.00;3.05;;;;;;;15.83;77.90;99403.62;1744571;80;20965;-73
2021/09/02 02:27:16;;;;;;;9.25;3.20;;;;;;;15.82;77.93;99403.27;1744866;80;20980;-73
2021/09/02 02:29:43;;;;;;;5.40;3.08;;;;;;;15.82;77.96;99405.42;1752269;80;21804;-73
2021/09/02 02:32:09;;;;;;;4.47;2.90;;;;;;;15.80;78.02;99405.29;1773319;80;21432;-73
2021/09/02 02:34:36;;;;;;;4.65;3.05;;;;;;;15.80;78.04;99412.77;1770544;80;21044;-73
2021/09/02 02:37:03;;;;;;;5.00;2.98;;;;;;;15.78;78.04;99412.13;1746913;80;21483;-73
2021/09/02 02:39:32;;;;;;;4.47;3.00;;;;;;;15.78;78.00;99419.29;1761130;79;20985;-73
2021/09/02 02:41:58;;;;;;;3.33;2.70;;;;;;;15.73;78.05;99421.17;1753683;80;22574;-73
2021/09/02 02:44:25;;;;;;;4.12;3.10;;;;;;;15.68;78.11;99423.02;1748166;80;21001;-73
2021/09/02 02:46:51;;;;;;;3.45;2.87;;;;;;;15.64;78.18;99426.23;1756355;80;20988;-73
2021/09/02 02:49:18;;;;;;;3.80;3.22;;;;;;;15.63;78.23;99425.88;1764364;80;21039;-72
2021/09/02 02:51:44;;;;;;;5.30;3.27;;;;;;;15.61;78.32;99422.06;1757308;80;21036;-73
2021/09/02 02:54:10;;;;;;;3.20;2.75;;;;;;;15.60;78.35;99423.07;1773912;80;21818;-72
2021/09/02 02:56:37;;;;;;;5.33;3.17;;;;;;;15.59;78.42;99421.39;1747292;80;21036;-73
2021/09/02 02:59:04;;;;;;;3.27;2.98;;;;;;;15.59;78.47;99422.72;1744641;80;21467;-73
2021/09/02 03:01:30;;;;;;;4.15;3.00;;;;;;;15.61;78.50;99415.91;1748280;80;21462;-74
2021/09/02 03:03:57;;;;;;;3.52;2.90;;;;;;;15.63;78.50;99420.08;1755686;80;21498;-73
2021/09/02 03:06:23;;;;;;;4.15;3.08;;;;;;;15.64;78.51;99412.41;1745971;80;22444;-73
2021/09/02 03:08:49;;;;;;;3.75;3.00;;;;;;;15.65;78.54;99414.57;1745522;80;21065;-73
2021/09/02 03:11:17;;;;;;;3.50;3.20;;;;;;;15.67;78.58;99410.72;1733721;81;21011;-73
2021/09/02 03:13:45;;;;;;;3.20;2.90;;;;;;;15.68;78.54;99411.03;1767882;80;21048;-73
2021/09/02 03:16:11;;;;;;;4.03;2.95;;;;;;;15.71;78.58;99412.00;1751877;80;21146;-74
2021/09/02 03:18:37;;;;;;;4.28;2.67;;;;;;;15.72;78.51;99414.16;1745313;80;21796;-73
2021/09/02 03:21:05;;;;;;;4.45;2.83;;;;;;;15.72;78.45;99421.64;1745817;80;21442;-73
2021/09/02 03:23:31;;;;;;;7.25;2.95;;;;;;;15.72;78.31;99423.48;1764154;80;20957;-73
2021/09/02 03:25:58;;;;;;;3.05;2.75;;;;;;;15.71;78.34;99422.66;1753817;80;21374;-74
2021/09/02 03:28:24;;;;;;;5.28;3.20;;;;;;;15.72;78.34;99418.16;1755462;80;21028;-73
2021/09/02 03:30:51;;;;;;;6.80;2.83;;;;;;;15.72;78.32;99418.98;1773940;80;21728;-73
2021/09/02 03:33:17;;;;;;;3.90;2.85;;;;;;;15.70;78.30;99419.67;1771269;80;20980;-73
2021/09/02 03:35:43;;;;;;;5.03;2.65;;;;;;;15.68;78.38;99413.70;1759401;80;20972;-72
2021/09/02 03:38:11;;;;;;;4.83;3.10;;;;;;;15.67;78.44;99418.70;1744678;80;20957;-72
2021/09/02 03:40:38;;;;;;;3.50;3.00;;;;;;;15.68;78.52;99418.20;1746784;80;20937;-73
2021/09/02 03:43:04;;;;;;;4.55;2.72;;;;;;;15.67;78.50;99412.05;1726223;82;21775;-73
2021/09/02 03:45:31;;;;;;;3.12;2.80;;;;;;;15.66;78.54;99417.05;1758398;80;21060;-74
2021/09/02 03:47:58;;;;;;;3.75;2.90;;;;;;;15.63;78.42;99419.22;1755984;80;21063;-72
2021/09/02 03:50:24;;;;;;;4.10;3.10;;;;;;;15.62;78.42;99421.56;1755641;80;21000;-72
2021/09/02 03:52:51;;;;;;;3.35;2.80;;;;;;;15.60;78.41;99417.75;1741821;80;20960;-72
2021/09/02 03:55:17;;;;;;;3.50;2.67;;;;;;;15.60;78.37;99415.09;1749655;80;22160;-73
2021/09/02 03:57:43;;;;;;;4.83;2.95;;;;;;;15.62;78.43;99411.73;1751814;80;21004;-72
2021/09/02 04:00:12;;;;;;;7.00;3.33;;;;;;;15.62;78.32;99416.23;1747939;80;21494;-73
2021/09/02 04:02:39;;;;;;;3.80;3.15;;;;;;;15.59;78.29;99410.73;1753418;80;20933;-72
2021/09/02 04:05:07;;;;;;;4.45;3.35;;;;;;;15.59;78.31;99413.41;1754928;80;20993;-72
2021/09/02 04:07:33;;;;;;;4.35;3.27;;;;;;;15.60;78.26;99419.08;1749868;80;21817;-72
2021/09/02 04:10:00;;;;;;;7.80;4.37;;;;;;;15.56;78.11;99423.08;1748753;80;20993;-71
2021/09/02 04:12:26;;;;;;;4.78;3.47;;;;;;;15.52;77.74;99416.94;1758701;80;21004;-71
2021/09/02 04:14:54;;;;;;;5.62;3.70;;;;;;;15.47;77.58;99418.81;1748320;80;21024;-71
2021/09/02 04:17:20;;;;;;;5.62;3.80;;;;;;;15.45;77.43;99422.16;1745373;80;20988;-71
2021/09/02 04:19:47;;;;;;;5.28;3.62;;;;;;;15.40;77.15;99422.67;1765320;80;21820;-71
2021/09/02 04:22:13;;;;;;;4.72;3.90;;;;;;;15.39;77.08;99425.02;1768169;80;21488;-70
2021/09/02 04:24:41;;;;;;;4.97;3.77;;;;;;;15.38;76.94;99427.85;1747385;80;20968;-72
2021/09/02 04:27:10;;;;;;;6.75;3.95;;;;;;;15.34;76.76;99424.70;1746125;80;20952;-72
2021/09/02 04:29:36;;;;;;;7.80;4.10;;;;;;;15.35;76.67;99433.03;1757649;80;21020;-71
2021/09/02 04:32:04;;;;;;;7.12;4.50;;;;;;;15.35;76.33;99437.53;1754894;80;21842;-72
2021/09/02 04:34:30;;;;;;;8.10;5.10;;;;;;;15.30;75.74;99439.37;1765739;80;21132;-68
2021/09/02 04:36:57;;;;;;;5.80;4.30;;;;;;;15.27;75.50;99441.05;1765324;80;21040;-69
2021/09/02 04:39:23;;;;;;;6.22;4.70;;;;;;;15.25;75.50;99443.06;1745047;80;21096;-74
2021/09/02 04:41:51;;;;;;;7.40;5.00;;;;;;;15.21;75.15;99436.42;1754511;80;21446;-71
2021/09/02 04:44:17;;;;;;;5.50;4.33;;;;;;;15.16;74.99;99432.97;1757117;80;21821;-70
2021/09/02 04:46:43;;;;;;;10.05;5.20;;;;;;;15.16;75.02;99436.13;1762566;79;21446;-70
2021/09/02 04:49:10;;;;;;;6.95;5.10;;;;;;;15.15;74.92;99443.28;1774500;80;20880;-72
2021/09/02 04:51:37;;;;;;;6.08;4.72;;;;;;;15.17;74.72;99443.10;1761092;80;20981;-73
2021/09/02 04:54:03;;;;;;;8.48;5.30;;;;;;;15.15;74.62;99445.94;1778506;80;21007;-73
2021/09/02 04:56:30;;;;;;;7.17;5.20;;;;;;;15.13;74.11;99442.60;1754482;80;22212;-72
2021/09/02 04:58:57;;;;;;;7.03;5.10;;;;;;;15.11;73.84;99447.78;1747595;82;20984;-72
2021/09/02 05:01:23;;;;;;;7.22;5.28;;;;;;;15.08;73.56;99449.46;1747644;82;21004;-71
2021/09/02 05:03:50;;;;;;;7.50;5.70;;;;;;;15.11;73.63;99442.45;1747819;80;21404;-71
2021/09/02 05:06:17;;;;;;;7.83;5.80;;;;;;;15.11;73.41;99445.12;1748629;80;21032;-72
2021/09/02 05:08:43;;;;;;;8.08;5.75;;;;;;;15.13;73.39;99443.11;1747765;82;21798;-72
2021/09/02 05:11:11;;;;;;;7.70;5.85;;;;;;;15.17;73.28;99441.77;1747548;82;20920;-73
2021/09/02 05:13:37;;;;;;;6.97;5.22;;;;;;;15.20;73.14;99441.92;1754452;80;20980;-73
2021/09/02 05:16:04;;;;;;;7.33;5.53;;;;;;;15.23;73.05;99433.58;1772320;79;20984;-73
2021/09/02 05:18:32;;;;;;;7.87;6.10;;;;;;;15.24;72.65;99431.24;1779212;80;20969;-73
2021/09/02 05:21:00;;;;;;;10.10;5.70;;;;;;;15.31;72.85;99434.88;1780213;80;20910;-72
2021/09/02 05:23:27;;;;;;;8.33;5.40;;;;;;;15.42;72.97;99438.45;1773623;79;20972;-74
2021/09/02 05:25:54;;;;;;;7.45;5.40;;;;;;;15.48;72.74;99439.09;1749684;82;21023;-72
2021/09/02 05:28:20;;;;;;;7.65;5.60;;;;;;;15.49;72.57;99436.76;1749618;80;21437;-73
2021/09/02 05:30:47;;;;;;;11.68;6.17;;;;;;;15.50;71.97;99438.92;1747921;80;21038;-73
2021/09/02 05:33:14;;;;;;;7.92;5.60;;;;;;;15.46;71.87;99443.27;1747726;81;22470;-73
2021/09/02 05:35:41;;;;;;;10.35;6.00;;;;;;;15.43;71.76;99448.92;1723829;80;21336;-74
2021/09/02 05:38:11;;;;;;;7.42;4.92;;;;;;;15.39;71.64;99444.14;1753946;80;21028;-73
2021/09/02 05:40:37;;;;;;;6.90;5.60;;;;;;;15.39;71.49;99448.96;1768579;80;21017;-73
2021/09/02 05:43:04;;;;;;;7.00;5.40;;;;;;;15.39;71.32;99446.30;1750082;80;21035;-73
2021/09/02 05:45:30;;;;;;;9.70;5.80;;;;;;;15.44;71.17;99445.76;1753236;80;21883;-72
2021/09/02 05:47:57;;;;;;;9.15;5.67;;;;;;;15.48;71.04;99454.23;1743334;81;20957;-73
2021/09/02 05:50:26;;;;;;;8.53;5.97;;;;;;;15.56;71.19;99452.86;1748389;80;21016;-74
2021/09/02 05:52:54;;;;;;;8.08;5.58;;;;;;;15.66;70.93;99447.66;1761576;80;21008;-73
2021/09/02 05:55:21;;;;;;;8.78;5.40;;;;;;;15.73;70.58;99449.95;1757385;80;21023;-73
2021/09/02 05:57:47;;;;;;;8.50;6.17;;;;;;;15.83;70.32;99444.39;1771401;80;22168;-72
2021/09/02 06:00:14;;;;;;;10.88;5.17;;;;;;;15.91;70.24;99444.30;1766922;80;20993;-73
2021/09/02 06:02:41;;;;;;;6.95;5.55;;;;;;;16.07;70.32;99446.02;1756409;80;20973;-72
2021/09/02 06:05:09;;;;;;;6.50;4.83;;;;;;;16.22;70.08;99442.06;1750134;80;20996;-73
2021/09/02 06:07:35;;;;;;;8.05;5.03;;;;;;;16.36;69.37;99445.24;1761225;79;21478;-72
2021/09/02 06:10:02;;;;;;;7.03;4.70;;;;;;;16.44;67.71;99450.50;1744957;80;22794;-73
2021/09/02 06:12:30;;;;;;;8.13;5.22;;;;;;;16.45;67.33;99449.48;1744939;80;20924;-70
2021/09/02 06:14:57;;;;;;;7.55;5.40;;;;;;;16.49;67.22;99450.77;1752017;80;21035;-68
2021/09/02 06:17:23;;;;;;;6.47;5.00;;;;;;;16.53;66.77;99450.73;1749229;80;21016;-73
2021/09/02 06:19:50;;;;;;;6.47;4.90;;;;;;;16.51;66.35;99439.95;1750883;80;21467;-70
2021/09/02 06:22:17;;;;;;;6.97;5.60;;;;;;;16.51;66.63;99450.10;1755856;80;21689;-71
2021/09/02 06:24:43;;;;;;;8.65;5.50;;;;;;;16.50;66.65;99460.44;1755117;80;21016;-73
2021/09/02 06:27:10;;;;;;;7.42;5.60;;;;;;;16.53;66.89;99452.58;1749813;80;21395;-71
2021/09/02 06:29:37;;;;;;;9.15;5.47;;;;;;;16.53;66.83;99460.06;1772566;80;21009;-77
2021/09/02 06:32:04;;;;;;;8.08;5.37;;;;;;;16.61;67.37;99464.50;1746691;82;21082;-74
2021/09/02 06:34:31;;;;;;;6.05;5.33;;;;;;;16.72;67.00;99464.06;1763150;79;22813;-73
2021/09/02 06:36:57;;;;;;;7.67;5.30;;;;;;;16.81;66.81;99463.48;1774915;80;21009;-73
2021/09/02 06:39:25;;;;;;;7.90;5.37;;;;;;;16.92;66.93;99462.18;1750878;80;20988;-73
2021/09/02 06:41:52;;;;;;;8.78;5.53;;;;;;;17.02;66.43;99467.55;1751480;80;21021;-73
2021/09/02 06:44:18;;;;;;;9.85;5.25;;;;;;;17.10;66.41;99466.63;1755632;80;20975;-73
2021/09/02 06:46:46;;;;;;;10.63;5.42;;;;;;;17.19;66.61;99466.85;1774828;80;22706;-72
2021/09/02 06:49:13;;;;;;;6.37;5.08;;;;;;;17.33;66.24;99462.48;1760906;80;21493;-71
2021/09/02 06:51:41;;;;;;;6.58;5.17;;;;;;;17.41;65.73;99461.05;1758579;80;20921;-71
2021/09/02 06:54:09;;;;;;;10.70;5.10;;;;;;;17.42;65.05;99470.70;1744446;82;20952;-71
2021/09/02 06:56:37;;;;;;;8.20;4.97;;;;;;;17.44;64.88;99466.00;1744585;82;21016;-71
2021/09/02 06:59:04;;;;;;;7.00;4.65;;;;;;;17.43;64.79;99471.02;1770697;80;21833;-72
2021/09/02 07:01:30;;;;;;;9.38;4.75;;;;;;;17.40;64.72;99471.41;1775046;80;21047;-72
2021/09/02 07:03:56;;;;;;;11.18;5.42;;;;;;;17.33;64.59;99482.51;1775287;80;21012;-72
2021/09/02 07:06:24;;;;;;;11.83;5.00;;;;;;;17.25;64.87;99487.94;1774561;79;20969;-72
2021/09/02 07:08:50;;;;;;;6.95;5.17;;;;;;;17.20;65.28;99483.18;1773587;80;20941;-72
2021/09/02 07:11:17;;;;;;;8.13;5.47;;;;;;;17.23;65.24;99487.31;1775181;80;21843;-72
2021/09/02 07:13:45;;;;;;;8.23;5.30;;;;;;;17.22;65.31;99489.16;1775159;80;20984;-71
2021/09/02 07:16:11;;;;;;;6.70;4.80;;;;;;;17.22;64.89;99495.00;1775377;80;20984;-71
2021/09/02 07:18:39;;;;;;;9.60;5.30;;;;;;;17.20;65.25;99490.36;1755964;80;20944;-72
2021/09/02 07:21:06;;;;;;;6.70;5.50;;;;;;;17.24;65.30;99493.79;1763192;80;21471;-72
2021/09/02 07:23:32;;;;;;;6.58;5.17;;;;;;;17.26;65.47;99498.43;1775611;80;22133;-72
2021/09/02 07:25:59;;;;;;;6.95;4.92;;;;;;;17.28;65.48;99489.75;1757937;80;20921;-71
2021/09/02 07:28:25;;;;;;;7.30;5.22;;;;;;;17.28;65.28;99489.75;1744741;80;21057;-71
2021/09/02 07:30:51;;;;;;;8.23;5.55;;;;;;;17.22;64.88;99495.83;1706569;84;20982;-71
2021/09/02 07:33:18;;;;;;;6.90;4.62;;;;;;;17.09;64.95;99486.33;1696799;82;20962;-72
2021/09/02 07:35:44;;;;;;;8.63;4.75;;;;;;;17.01;65.19;99485.91;1752271;80;22805;-71
2021/09/02 07:38:10;;;;;;;7.70;4.70;;;;;;;16.92;64.87;99492.86;1746168;80;20957;-72
2021/09/02 07:40:37;;;;;;;7.35;4.80;;;;;;;16.86;64.97;99493.90;1775372;80;21012;-71
2021/09/02 07:43:03;;;;;;;5.40;4.45;;;;;;;16.82;64.49;99487.80;1775098;80;21060;-73
2021/09/02 07:45:30;;;;;;;6.03;4.55;;;;;;;16.79;64.39;99483.66;1770655;80;21331;-71
2021/09/02 07:47:56;;;;;;;7.28;4.40;;;;;;;16.79;64.28;99482.81;1744579;82;22766;-70
2021/09/02 07:50:22;;;;;;;5.80;4.55;;;;;;;16.82;64.24;99477.13;1763764;80;20921;-73
2021/09/02 07:52:49;;;;;;;5.25;3.87;;;;;;;16.96;64.55;99478.95;1750645;80;20944;-71
2021/09/02 07:55:15;;;;;;;6.90;3.50;;;;;;;17.21;63.81;99485.34;1743891;80;21369;-70
2021/09/02 07:57:47;;;;;;;4.80;3.20;;;;;;;17.46;61.83;99479.47;1762065;80;21055;-72
2021/09/02 08:00:11;;;;;;;7.40;3.30;;;;;;;17.61;60.29;99474.11;1743235;80;21875;-73
2021/09/02 08:02:41;;;;;;;5.20;3.20;;;;;;;17.67;60.18;99486.71;1760247;80;21177;-70
2021/09/02 08:05:09;;;;;;;4.33;2.85;;;;;;;17.69;59.96;99495.87;1769488;80;21008;-68
2021/09/02 08:07:52;;;;;;;4.62;3.22;;;;;;;17.66;58.68;99498.89;1759524;80;21027;-72
2021/09/02 08:10:23;;;;;;;5.03;2.92;;;;;;;17.50;58.08;99486.62;1770599;80;21487;-71
2021/09/02 08:12:53;;;;;;;5.17;3.22;;;;;;;17.36;58.43;99490.13;1760746;80;21416;-74
2021/09/02 08:15:19;;;;;;;4.37;3.02;;;;;;;17.32;58.70;99491.53;1753959;80;20938;-68
2021/09/02 08:17:46;;;;;;;7.80;3.40;;;;;;;17.26;58.80;99488.27;1757720;80;21000;-71
2021/09/02 08:20:14;;;;;;;3.50;2.92;;;;;;;17.17;59.01;99489.69;1773892;80;21032;-72
2021/09/02 08:22:40;;;;;;;6.25;2.80;;;;;;;17.18;59.44;99485.22;1760923;80;21074;-72
2021/09/02 08:25:09;;;;;;;3.65;3.20;;;;;;;17.28;59.66;99480.92;1763103;80;21804;-70
2021/09/02 08:27:35;;;;;;;4.05;3.20;;;;;;;17.45;59.89;99478.33;1756304;80;21019;-72
2021/09/02 08:30:02;;;;;;;7.40;3.25;;;;;;;17.64;59.37;99475.05;1772531;80;21016;-72
2021/09/02 08:32:28;;;;;;;6.47;3.35;;;;;;;17.80;59.49;99479.37;1774601;80;20949;-71
2021/09/02 08:34:55;;;;;;;5.58;3.52;;;;;;;17.95;58.81;99482.82;1773656;80;21075;-71
2021/09/02 08:37:21;;;;;;;4.65;3.30;;;;;;;18.02;58.13;99478.34;1774434;79;22190;-71
2021/09/02 08:39:48;;;;;;;11.50;3.30;;;;;;;17.97;57.43;99498.66;1755721;80;21474;-71
2021/09/02 08:42:15;;;;;;;5.03;3.20;;;;;;;17.77;57.36;99490.44;1743880;82;21024;-72
2021/09/02 08:44:44;;;;;;;6.12;3.85;;;;;;;17.48;57.66;99489.99;1746458;80;21095;-71
2021/09/02 08:47:11;;;;;;;5.75;3.00;;;;;;;17.17;57.53;99487.02;1747245;80;21020;-72
2021/09/02 08:49:38;;;;;;;4.78;3.47;;;;;;;16.91;57.94;99489.36;1744185;82;22452;-73
2021/09/02 08:52:05;;;;;;;7.62;3.45;;;;;;;16.75;58.42;99488.20;1744246;82;20980;-71
2021/09/02 08:54:33;;;;;;;8.20;4.05;;;;;;;16.64;58.08;99493.95;1747128;80;21393;-72
2021/09/02 08:56:59;;;;;;;4.17;3.33;;;;;;;16.55;58.22;99499.87;1769858;80;21411;-71
2021/09/02 08:59:25;;;;;;;5.70;3.77;;;;;;;16.51;58.47;99496.75;1775203;79;21028;-71
2021/09/02 09:01:52;;;;;;;7.87;3.85;;;;;;;16.55;58.79;99493.20;1775134;80;22851;-71
2021/09/02 09:04:19;;;;;;;7.12;4.05;;;;;;;16.60;58.96;99492.17;1773409;80;20976;-71
2021/09/02 09:06:46;;;;;;;5.37;3.70;;;;;;;16.66;59.01;99485.27;1730842;82;21051;-71
2021/09/02 09:09:16;;;;;;;8.73;3.75;;;;;;;16.71;59.29;99486.41;1700300;82;21404;-70
2021/09/02 09:11:49;;;;;;;7.40;3.90;;;;;;;16.82;59.63;99487.29;1744499;82;21480;-70
2021/09/02 09:14:19;;;;;;;5.97;4.03;;;;;;;16.99;59.76;99487.12;1736952;80;21810;-71
2021/09/02 09:16:54;;;;;;;5.53;3.87;;;;;;;17.08;58.83;99484.16;1774461;79;20980;-70
2021/09/02 09:19:49;;;;;;;8.45;4.00;;;;;;;17.14;58.41;99490.58;1775356;80;20925;-70
2021/09/02 09:22:14;;;;;;;7.08;3.72;;;;;;;17.11;57.47;99502.46;1773227;80;20956;-70
2021/09/02 09:24:53;;;;;;;7.62;3.65;;;;;;;17.06;57.42;99501.34;1773029;80;20976;-70
2021/09/02 09:27:41;;;;;;;9.70;3.50;;;;;;;16.99;57.49;99516.45;1768550;79;21853;-71
2021/09/02 09:30:29;;;;;;;5.65;3.20;;;;;;;16.91;56.66;99514.70;1754065;80;20981;-70
2021/09/02 09:33:07;;;;;;;6.17;3.12;;;;;;;16.89;56.05;99518.06;1766269;79;21052;-68
2021/09/02 09:35:36;;;;;;;6.40;2.80;;;;;;;16.84;54.41;99529.27;1729927;80;21058;-73
2021/09/02 09:38:16;;;;;;;6.75;2.90;;;;;;;16.83;54.60;99534.28;1761207;80;21036;-72
2021/09/02 09:40:44;;;;;;;7.47;3.02;;;;;;;16.79;53.06;99532.14;1745975;80;22528;-72
2021/09/02 09:43:17;;;;;;;5.00;2.30;;;;;;;16.81;52.96;99536.81;1745167;80;20928;-71
2021/09/02 09:45:52;;;;;;;5.45;2.47;;;;;;;16.85;51.57;99534.09;1752394;80;21042;-72
2021/09/02 09:48:33;;;;;;;4.87;2.25;;;;;;;16.83;50.41;99540.95;1759822;80;20932;-72
2021/09/02 09:51:19;;;;;;;4.28;2.20;;;;;;;16.85;50.18;99538.92;1749389;82;20977;-71
2021/09/02 09:53:48;;;;;;;7.90;2.40;;;;;;;16.90;49.56;99539.72;1749939;82;21751;-71
2021/09/02 09:56:19;;;;;;;5.35;2.40;;;;;;;16.96;48.97;99536.30;1772300;80;21435;-71
2021/09/02 09:58:49;;;;;;;7.30;2.80;;;;;;;16.98;48.99;99534.27;1774611;79;21015;-71
2021/09/02 10:01:16;;;;;;;5.17;2.40;;;;;;;17.01;48.80;99540.59;1764468;80;20972;-72
2021/09/02 10:03:43;;;;;;;3.95;2.30;;;;;;;17.11;49.47;99536.32;1754719;80;20968;-72
2021/09/02 10:06:11;;;;;;;4.87;2.30;;;;;;;17.28;49.59;99540.46;1748797;82;21917;-71
2021/09/02 10:08:41;;;;;;;5.50;2.30;;;;;;;17.54;48.03;99534.61;1710922;83;20961;-71
2021/09/02 10:11:10;;;;;;;7.20;2.70;;;;;;;17.79;47.76;99535.15;1722903;80;20989;-71
2021/09/02 10:13:38;;;;;;;6.15;2.22;;;;;;;18.12;47.52;99522.11;1781021;80;21491;-70
2021/09/02 10:16:05;;;;;;;3.98;1.90;;;;;;;18.47;46.34;99531.59;1780929;79;21371;-72
2021/09/02 10:18:33;;;;;;;4.50;2.02;;;;;;;18.62;45.32;99532.81;1781133;80;22193;-73
2021/09/02 10:21:08;;;;;;;5.80;2.25;;;;;;;18.54;42.78;99537.82;1780798;80;20972;-71
2021/09/02 10:23:34;;;;;;;3.35;2.02;;;;;;;18.27;42.51;99548.28;1781121;79;21110;-72
2021/09/02 10:26:02;;;;;;;6.47;2.30;;;;;;;18.01;42.41;99550.17;1780792;80;20949;-72
2021/09/02 10:28:36;;;;;;;4.97;2.30;;;;;;;17.88;42.93;99553.23;1774956;80;20953;-71
2021/09/02 10:31:05;;;;;;;5.03;2.12;;;;;;;17.82;42.46;99559.31;1755718;80;21824;-69
2021/09/02 10:33:40;;;;;;;6.60;2.45;;;;;;;17.78;43.36;99572.73;1762734;80;20933;-69
2021/09/02 10:36:21;;;;;;;4.95;2.00;;;;;;;17.73;42.95;99570.10;1749955;82;21075;-71
2021/09/02 10:38:56;;;;;;;7.17;1.90;;;;;;;17.70;42.90;99561.65;1750011;80;21036;-70
2021/09/02 10:41:40;;;;;;;7.22;2.20;;;;;;;17.82;42.55;99565.98;1750044;81;20924;-71
2021/09/02 10:44:11;;;;;;;5.42;1.90;;;;;;;18.09;40.96;99558.58;1749985;82;40793;-70
2021/09/02 10:46:51;;;;;;;4.90;2.00;;;;;;;18.49;41.66;99559.78;1770403;80;21032;-71
2021/09/02 10:49:35;;;;;;;4.67;1.95;;;;;;;18.91;41.21;99554.56;1782887;80;20972;-70
2021/09/02 10:52:04;;;;;;;4.75;1.92;;;;;;;19.15;40.01;99561.63;1783475;80;20953;-70
2021/09/02 10:54:36;;;;;;;4.42;1.90;;;;;;;19.02;39.08;99561.56;1779577;80;21443;-71
2021/09/02 10:57:08;;;;;;;3.75;1.75;;;;;;;18.82;39.04;99555.25;1783363;79;21843;-70
2021/09/02 10:59:49;;;;;;;4.70;1.90;;;;;;;18.64;38.67;99583.78;1783556;80;21043;-70
2021/09/02 11:02:24;;;;;;;5.87;1.90;;;;;;;18.36;38.94;99570.88;1779995;80;20981;-70
2021/09/02 11:05:04;;;;;;;5.47;1.90;;;;;;;18.13;40.60;99582.56;1752555;80;20960;-68
2021/09/02 11:07:48;;;;;;;4.08;1.70;;;;;;;18.05;41.15;99581.37;1752459;81;20932;-69
2021/09/02 11:10:22;;;;;;;5.35;1.87;;;;;;;18.13;41.45;99583.90;1773869;80;22200;-72
2021/09/02 11:13:03;;;;;;;3.87;1.80;;;;;;;18.25;41.50;99582.91;1775714;79;20848;-72
2021/09/02 11:15:34;;;;;;;3.35;1.67;;;;;;;18.33;40.70;99593.45;1726889;81;21347;-72
2021/09/02 11:18:04;;;;;;;5.78;1.77;;;;;;;18.24;38.60;99581.27;1775370;80;21397;-73
2021/09/02 11:20:32;;;;;;;6.42;2.10;;;;;;;18.05;39.16;99589.39;1762047;80;20928;-72
2021/09/02 11:23:16;;;;;;;4.15;2.12;;;;;;;17.99;39.99;99600.31;1752324;82;22251;-73
2021/09/02 11:25:48;;;;;;;4.97;1.60;;;;;;;17.96;40.12;99596.69;1752017;82;20941;-74
2021/09/02 11:28:18;;;;;;;3.52;1.95;;;;;;;17.94;40.01;99595.20;1752348;82;20984;-73
2021/09/02 11:30:44;;;;;;;7.08;1.80;;;;;;;17.96;39.63;99595.86;1752648;82;21031;-73
2021/09/02 11:33:11;;;;;;;5.87;1.60;;;;;;;17.91;38.28;99603.09;1752335;82;20940;-73
2021/09/02 11:35:39;;;;;;;3.87;1.70;;;;;;;17.90;38.38;99595.27;1752362;82;20949;-74
2021/09/02 11:38:05;;;;;;;5.97;1.95;;;;;;;17.85;37.14;99594.98;1753383;80;21443;-70
2021/09/02 11:40:34;;;;;;;3.58;1.50;;;;;;;17.81;37.74;99593.72;1752777;81;20933;-70